Time;durP1;ratioP1;P1;durP2;ratioP2;P2;SDS_P1;SDS_P2;PMS_P1;PMS_P2;Temp;Humidity;BMP_temperature;BMP_pressure;BME280_temperature;BME280_humidity;BME280_pressure;Samples;Min_cycle;Max_cycle;Signal;HPM_P1;HPM_P2
2023/03/04 00:00:23;;;;;;;6.72;3.38;;;6.30;99.90;;;;;;5074774;28;20059;-79
2023/03/04 00:02:49;;;;;;;4.18;2.00;;;6.30;99.90;;;;;;5067696;28;20051;-79
2023/03/04 00:05:14;;;;;;;9.95;3.30;;;6.30;99.90;;;;;;5070911;28;20040;-79
2023/03/04 00:07:40;;;;;;;5.53;3.33;;;6.30;99.90;;;;;;5069725;28;20062;-79
2023/03/04 00:10:06;;;;;;;11.48;2.42;;;6.30;99.90;;;;;;5067302;28;20126;-79
2023/03/04 00:12:32;;;;;;;6.47;2.03;;;6.30;99.90;;;;;;5066971;28;20051;-79
2023/03/04 00:14:57;;;;;;;9.65;1.50;;;6.20;99.90;;;;;;5067307;28;20392;-79
2023/03/04 00:17:23;;;;;;;5.05;2.50;;;6.30;99.90;;;;;;5065621;28;20036;-79
2023/03/04 00:19:49;;;;;;;16.95;4.13;;;6.20;99.90;;;;;;5066177;28;20024;-79
2023/03/04 00:22:15;;;;;;;11.25;2.92;;;6.30;99.90;;;;;;5076412;28;20702;-79
2023/03/04 00:24:40;;;;;;;4.43;2.97;;;6.30;99.90;;;;;;5073867;28;20072;-78
2023/03/04 00:27:06;;;;;;;7.05;2.13;;;6.30;99.90;;;;;;5085313;28;20404;-79
2023/03/04 00:29:31;;;;;;;9.65;2.88;;;6.20;99.90;;;;;;5070873;28;20028;-80
2023/03/04 00:31:57;;;;;;;5.07;3.20;;;6.30;99.90;;;;;;5062335;28;20044;-78
2023/03/04 00:34:23;;;;;;;3.88;1.70;;;6.20;99.90;;;;;;5072127;28;20043;-79
2023/03/04 00:36:48;;;;;;;15.23;2.95;;;6.30;99.90;;;;;;5066684;28;20075;-79
2023/03/04 00:39:14;;;;;;;5.07;3.08;;;6.20;99.90;;;;;;5065199;28;20044;-79
2023/03/04 00:41:40;;;;;;;10.45;1.85;;;6.30;99.90;;;;;;5070934;28;20070;-78
2023/03/04 00:44:05;;;;;;;2.47;1.63;;;6.20;99.90;;;;;;5077872;28;20593;-79
2023/03/04 00:46:31;;;;;;;3.85;1.95;;;6.30;99.90;;;;;;5071710;28;20050;-78
2023/03/04 00:48:57;;;;;;;1.67;1.08;;;6.30;99.90;;;;;;5076583;28;20048;-78
2023/03/04 00:51:22;;;;;;;5.88;2.05;;;6.20;99.90;;;;;;5079264;28;20531;-79
2023/03/04 00:53:48;;;;;;;6.35;2.40;;;6.20;99.90;;;;;;5083247;28;20063;-79
2023/03/04 00:56:14;;;;;;;7.63;2.00;;;6.30;99.90;;;;;;5075806;28;20441;-78
2023/03/04 00:58:39;;;;;;;10.27;2.55;;;6.20;99.90;;;;;;5066915;28;20033;-79
2023/03/04 01:01:06;;;;;;;2.65;1.77;;;6.20;99.90;;;;;;5047192;28;20040;-79
2023/03/04 01:03:32;;;;;;;5.38;1.65;;;6.20;99.90;;;;;;5066541;28;20084;-79
2023/03/04 01:05:58;;;;;;;9.25;1.77;;;6.20;99.90;;;;;;5080840;28;20079;-79
2023/03/04 01:08:25;;;;;;;5.28;1.90;;;6.20;99.90;;;;;;5067753;28;20392;-79
2023/03/04 01:10:51;;;;;;;5.57;1.77;;;6.20;99.90;;;;;;5086323;28;20128;-79
2023/03/04 01:13:17;;;;;;;3.72;1.50;;;6.20;99.90;;;;;;5084917;28;20040;-78
2023/03/04 01:15:43;;;;;;;5.20;1.50;;;6.20;99.90;;;;;;5083969;28;20819;-78
2023/03/04 01:18:09;;;;;;;11.15;2.97;;;6.20;99.90;;;;;;5084629;28;20116;-78
2023/03/04 01:20:34;;;;;;;8.30;3.47;;;6.20;99.90;;;;;;5086238;28;20120;-79
2023/03/04 01:23:00;;;;;;;6.93;1.90;;;6.20;99.90;;;;;;5082712;28;20452;-79
2023/03/04 01:25:25;;;;;;;2.83;2.25;;;6.20;99.90;;;;;;5062050;28;20037;-78
2023/03/04 01:27:51;;;;;;;7.00;1.52;;;6.20;99.90;;;;;;5048062;28;20051;-79
2023/03/04 01:30:17;;;;;;;4.10;2.05;;;6.20;99.90;;;;;;5066101;28;20511;-79
2023/03/04 01:32:42;;;;;;;4.68;2.30;;;6.20;99.90;;;;;;5069949;28;20040;-78
2023/03/04 01:35:09;;;;;;;7.88;3.80;;;6.20;99.90;;;;;;5083627;28;20055;-78
2023/03/04 01:37:34;;;;;;;5.95;2.42;;;6.20;99.90;;;;;;5090114;28;20384;-79
2023/03/04 01:40:00;;;;;;;3.92;1.67;;;6.20;99.90;;;;;;5089650;28;20044;-78
2023/03/04 01:42:29;;;;;;;6.63;1.40;;;6.20;99.90;;;;;;5090512;28;20048;-78
2023/03/04 01:44:55;;;;;;;7.25;2.75;;;6.20;99.90;;;;;;5072086;28;20048;-78
2023/03/04 01:47:22;;;;;;;17.70;2.28;;;6.20;99.90;;;;;;5074421;28;20044;-78
2023/03/04 01:49:53;;;;;;;11.75;2.53;;;6.10;99.90;;;;;;5051725;28;20068;-78
2023/03/04 01:52:19;;;;;;;3.85;1.60;;;6.20;99.90;;;;;;5069154;28;20044;-78
2023/03/04 01:54:46;;;;;;;3.83;2.08;;;6.10;99.90;;;;;;5080948;28;20447;-79
2023/03/04 01:57:17;;;;;;;8.98;2.85;;;6.10;99.90;;;;;;5067948;28;20075;-79
2023/03/04 01:59:43;;;;;;;5.50;1.77;;;6.10;99.90;;;;;;5069350;28;20040;-78
2023/03/04 02:02:09;;;;;;;4.30;1.90;;;6.20;99.90;;;;;;5068403;28;20033;-79
2023/03/04 02:04:35;;;;;;;2.38;1.42;;;6.10;99.90;;;;;;5072521;28;20044;-79
2023/03/04 02:07:02;;;;;;;3.65;1.92;;;6.10;99.90;;;;;;5088122;28;20040;-78
2023/03/04 02:09:29;;;;;;;9.77;2.83;;;6.10;99.90;;;;;;5068331;28;20032;-78
2023/03/04 02:11:55;;;;;;;4.45;1.63;;;6.20;99.90;;;;;;5147566;23;20101;-73
2023/03/04 02:14:21;;;;;;;10.82;1.95;;;6.20;99.90;;;;;;5087886;28;20046;-73
2023/03/04 02:16:48;;;;;;;4.00;3.00;;;6.20;99.90;;;;;;5072208;28;20076;-72
2023/03/04 02:19:41;;;;;;;3.38;1.33;;;6.20;99.90;;;;;;5069287;28;20082;-72
2023/03/04 02:22:06;;;;;;;13.18;2.63;;;6.20;99.90;;;;;;5034534;28;20561;-73
2023/03/04 02:24:37;;;;;;;5.53;2.40;;;6.20;99.90;;;;;;5073008;28;20036;-73
2023/03/04 02:27:03;;;;;;;15.65;2.50;;;6.20;99.90;;;;;;5071338;28;20074;-73
2023/03/04 02:29:29;;;;;;;7.35;2.55;;;6.10;99.90;;;;;;5077971;28;20040;-72
2023/03/04 02:31:55;;;;;;;7.22;2.97;;;6.10;99.90;;;;;;5051003;28;20041;-73
2023/03/04 02:34:30;;;;;;;6.13;2.63;;;6.20;99.90;;;;;;5066429;28;20047;-73
2023/03/04 02:36:57;;;;;;;6.82;2.20;;;6.10;99.90;;;;;;5082497;28;20059;-73
2023/03/04 02:39:34;;;;;;;5.85;2.15;;;6.10;99.90;;;;;;5051403;28;20782;-72
2023/03/04 02:42:02;;;;;;;2.72;1.33;;;6.20;99.90;;;;;;5075608;28;20487;-74
2023/03/04 02:44:33;;;;;;;3.38;1.80;;;6.10;99.90;;;;;;5089603;28;20079;-72
2023/03/04 02:46:59;;;;;;;11.95;2.33;;;6.10;99.90;;;;;;5059199;28;20045;-73
2023/03/04 02:49:27;;;;;;;9.20;2.05;;;6.10;99.90;;;;;;5039691;28;20036;-73
2023/03/04 02:52:09;;;;;;;6.68;2.38;;;6.10;99.90;;;;;;5089395;28;20063;-72
2023/03/04 02:54:36;;;;;;;5.82;1.88;;;6.20;99.90;;;;;;5076296;28;20044;-72
2023/03/04 02:57:04;;;;;;;4.10;2.17;;;6.10;99.90;;;;;;5087986;28;20434;-73
2023/03/04 02:59:30;;;;;;;8.52;1.90;;;6.20;99.90;;;;;;5061323;28;20044;-73
2023/03/04 03:01:56;;;;;;;5.00;1.30;;;6.20;99.90;;;;;;5067985;28;20051;-72
2023/03/04 03:04:23;;;;;;;3.90;2.05;;;6.20;99.90;;;;;;5050586;28;20594;-72
2023/03/04 03:06:49;;;;;;;4.13;1.52;;;6.20;99.90;;;;;;5034168;28;20044;-73
2023/03/04 03:09:14;;;;;;;5.03;2.05;;;6.10;99.90;;;;;;5069183;28;20043;-73
2023/03/04 03:11:40;;;;;;;4.28;2.28;;;6.20;99.90;;;;;;5072389;28;20377;-73
2023/03/04 03:14:06;;;;;;;3.28;1.27;;;6.20;99.90;;;;;;5067940;28;20052;-73
2023/03/04 03:16:31;;;;;;;7.28;1.55;;;6.20;99.90;;;;;;5067436;28;20036;-72
2023/03/04 03:18:57;;;;;;;6.20;2.25;;;6.20;99.90;;;;;;5068914;28;20049;-72
2023/03/04 03:21:23;;;;;;;10.35;1.60;;;6.20;99.90;;;;;;5050079;28;20056;-73
2023/03/04 03:23:49;;;;;;;9.73;2.85;;;6.10;99.90;;;;;;5039931;28;20039;-72
2023/03/04 03:26:15;;;;;;;5.93;1.60;;;6.20;99.90;;;;;;5086641;28;20072;-72
2023/03/04 03:28:40;;;;;;;6.03;1.48;;;6.20;99.90;;;;;;5054437;28;20072;-73
2023/03/04 03:31:06;;;;;;;9.52;2.10;;;6.20;99.90;;;;;;5079041;28;20590;-73
2023/03/04 03:33:32;;;;;;;6.70;2.40;;;6.20;99.90;;;;;;5057376;28;20042;-73
2023/03/04 03:35:58;;;;;;;5.55;2.40;;;6.20;99.90;;;;;;5070762;28;20040;-73
2023/03/04 03:38:24;;;;;;;3.17;1.33;;;6.20;99.90;;;;;;5069823;28;20044;-72
2023/03/04 03:40:50;;;;;;;5.55;2.47;;;6.20;99.90;;;;;;5078722;28;20037;-73
2023/03/04 03:43:16;;;;;;;12.48;2.90;;;6.20;99.90;;;;;;5068481;28;20055;-72
2023/03/04 03:45:41;;;;;;;4.95;2.88;;;6.20;99.90;;;;;;5075042;28;20046;-72
2023/03/04 03:48:07;;;;;;;1.00;0.82;;;6.20;99.90;;;;;;5067677;28;20412;-73
2023/03/04 03:50:32;;;;;;;15.75;1.73;;;6.20;99.90;;;;;;5049752;28;20047;-72
2023/03/04 03:52:58;;;;;;;7.80;2.17;;;6.20;99.90;;;;;;5070647;28;20497;-73
2023/03/04 03:55:24;;;;;;;2.38;1.70;;;6.20;99.90;;;;;;5051165;28;20043;-73
2023/03/04 03:57:49;;;;;;;3.95;1.70;;;6.20;99.90;;;;;;5069251;28;20048;-72
2023/03/04 04:00:16;;;;;;;5.90;1.70;;;6.20;99.90;;;;;;5067908;28;20515;-73
2023/03/04 04:02:41;;;;;;;2.45;2.03;;;6.20;99.90;;;;;;5039181;28;20488;-72
2023/03/04 04:05:08;;;;;;;2.45;1.00;;;6.20;99.90;;;;;;5049312;28;20041;-72
2023/03/04 04:07:35;;;;;;;4.95;1.60;;;6.20;99.90;;;;;;5049219;28;20044;-72
2023/03/04 04:10:01;;;;;;;5.13;1.35;;;6.20;99.90;;;;;;5085247;28;20043;-72
2023/03/04 04:12:26;;;;;;;5.43;2.47;;;6.20;99.90;;;;;;5069711;28;20056;-73
2023/03/04 04:14:52;;;;;;;2.38;1.17;;;6.20;99.90;;;;;;5051273;28;20123;-73
2023/03/04 04:17:17;;;;;;;6.65;1.50;;;6.20;99.90;;;;;;5070235;28;20051;-73
2023/03/04 04:19:43;;;;;;;1.67;1.17;;;6.20;99.90;;;;;;5054180;28;20507;-73
2023/03/04 04:22:17;;;;;;;2.70;1.45;;;6.20;99.90;;;;;;5066777;28;20036;-72
2023/03/04 04:24:43;;;;;;;2.00;1.30;;;6.30;99.90;;;;;;5066011;28;20052;-73
2023/03/04 04:27:09;;;;;;;10.73;1.40;;;6.30;99.90;;;;;;5085150;28;20028;-73
2023/03/04 04:29:34;;;;;;;4.78;1.85;;;6.20;99.90;;;;;;5084374;28;20139;-72
2023/03/04 04:32:00;;;;;;;2.58;1.15;;;6.30;99.90;;;;;;5056291;28;20119;-74
2023/03/04 04:34:26;;;;;;;2.58;1.30;;;6.20;99.90;;;;;;5075401;28;20119;-72
2023/03/04 04:36:52;;;;;;;2.15;1.75;;;6.20;99.90;;;;;;5049301;28;20040;-72
2023/03/04 04:39:17;;;;;;;2.35;1.10;;;6.20;99.90;;;;;;5066957;28;20076;-73
2023/03/04 04:41:44;;;;;;;4.43;1.35;;;6.30;99.90;;;;;;5066595;28;20472;-72
2023/03/04 04:44:10;;;;;;;8.20;1.70;;;6.30;99.90;;;;;;5048485;28;20051;-72
2023/03/04 04:46:37;;;;;;;5.47;2.25;;;6.20;99.90;;;;;;5073376;28;20511;-73
2023/03/04 04:49:04;;;;;;;1.38;0.85;;;6.20;99.90;;;;;;5080746;28;20131;-72
2023/03/04 04:51:30;;;;;;;3.65;1.27;;;6.20;99.90;;;;;;5086960;28;20055;-74
2023/03/04 04:53:57;;;;;;;17.13;1.25;;;6.20;99.90;;;;;;5087603;28;20499;-72
2023/03/04 04:56:25;;;;;;;4.50;0.50;;;6.20;99.90;;;;;;5086726;28;20047;-72
2023/03/04 04:58:52;;;;;;;3.03;2.03;;;6.30;99.90;;;;;;5086618;28;20396;-72
2023/03/04 05:01:18;;;;;;;5.30;1.35;;;6.20;99.90;;;;;;5067108;28;20134;-71
2023/03/04 05:03:43;;;;;;;3.97;1.10;;;6.20;99.90;;;;;;5086859;28;20185;-72
2023/03/04 05:06:10;;;;;;;2.78;1.13;;;6.20;99.90;;;;;;5076374;28;20408;-73
2023/03/04 05:08:36;;;;;;;1.67;0.80;;;6.10;99.90;;;;;;5066313;28;20403;-73
2023/03/04 05:11:04;;;;;;;4.95;2.05;;;6.10;99.90;;;;;;5066279;28;20051;-72
2023/03/04 05:13:29;;;;;;;6.47;1.17;;;6.10;99.90;;;;;;5049266;28;20530;-75
2023/03/04 05:15:56;;;;;;;2.30;1.17;;;6.10;99.90;;;;;;5065878;28;20122;-72
2023/03/04 05:18:23;;;;;;;5.43;1.63;;;6.10;99.90;;;;;;5066014;28;20037;-73
2023/03/04 05:21:00;;;;;;;3.90;1.42;;;6.00;99.90;;;;;;5048485;28;20051;-73
2023/03/04 05:23:27;;;;;;;1.95;1.30;;;6.00;99.90;;;;;;5066746;28;20049;-73
2023/03/04 05:25:53;;;;;;;2.72;1.48;;;6.00;99.90;;;;;;5066234;28;20040;-73
2023/03/04 05:28:19;;;;;;;6.65;2.20;;;6.00;99.90;;;;;;5066316;28;20477;-72
2023/03/04 05:30:45;;;;;;;8.38;2.70;;;6.00;99.90;;;;;;5065542;28;20033;-73
2023/03/04 05:33:12;;;;;;;1.75;0.80;;;6.00;99.90;;;;;;5048082;28;20132;-72
2023/03/04 05:35:39;;;;;;;2.45;1.30;;;6.00;99.90;;;;;;5048500;28;20526;-71
2023/03/04 05:38:07;;;;;;;2.22;1.20;;;6.00;99.90;;;;;;5047992;28;20041;-73
2023/03/04 05:40:32;;;;;;;5.28;1.48;;;6.00;99.90;;;;;;5048141;28;20045;-73
2023/03/04 05:42:58;;;;;;;1.90;1.40;;;6.00;99.90;;;;;;5048571;28;20040;-72
2023/03/04 05:45:24;;;;;;;11.00;2.13;;;6.00;99.90;;;;;;5047069;28;20087;-72
2023/03/04 05:47:50;;;;;;;6.93;1.88;;;6.00;99.90;;;;;;5083746;28;20048;-72
2023/03/04 05:50:16;;;;;;;5.00;1.30;;;6.00;99.90;;;;;;5048116;28;20128;-72
2023/03/04 05:52:41;;;;;;;8.63;3.47;;;6.00;99.90;;;;;;5049326;28;20119;-73
2023/03/04 05:55:07;;;;;;;10.98;2.97;;;6.10;99.90;;;;;;5066881;28;20040;-73
2023/03/04 05:57:33;;;;;;;5.00;2.45;;;6.00;99.90;;;;;;5059084;28;20110;-72
2023/03/04 06:00:08;;;;;;;4.35;2.20;;;6.10;99.90;;;;;;5047795;28;20107;-73
2023/03/04 06:02:35;;;;;;;17.05;2.75;;;6.00;99.90;;;;;;5080423;28;20040;-72
2023/03/04 06:05:02;;;;;;;4.35;1.48;;;6.00;99.90;;;;;;5067504;28;20084;-73
2023/03/04 06:07:27;;;;;;;8.73;1.20;;;6.10;99.90;;;;;;5086155;28;20536;-73
2023/03/04 06:09:53;;;;;;;9.85;1.23;;;6.10;99.90;;;;;;5061062;28;20029;-73
2023/03/04 06:12:19;;;;;;;2.13;1.52;;;6.10;99.90;;;;;;5066761;28;20122;-71
2023/03/04 06:14:44;;;;;;;6.07;2.33;;;6.10;99.90;;;;;;5061626;28;20083;-72
2023/03/04 06:17:10;;;;;;;7.03;2.38;;;6.10;99.90;;;;;;5086576;28;20036;-72
2023/03/04 06:19:36;;;;;;;3.88;1.70;;;6.10;99.90;;;;;;5071493;28;20164;-72
2023/03/04 06:22:03;;;;;;;3.95;1.38;;;6.10;99.90;;;;;;5089053;28;20404;-72
2023/03/04 06:24:28;;;;;;;6.90;1.45;;;6.00;99.90;;;;;;5086421;28;20045;-72
2023/03/04 06:26:54;;;;;;;6.18;1.73;;;6.10;99.90;;;;;;5076293;28;20043;-73
2023/03/04 06:29:19;;;;;;;2.20;1.15;;;6.00;99.90;;;;;;5069321;28;20044;-72
2023/03/04 06:31:45;;;;;;;11.00;2.08;;;6.00;99.90;;;;;;5070357;28;20036;-72
2023/03/04 06:34:11;;;;;;;0.82;0.75;;;6.00;99.90;;;;;;5054251;28;20041;-72
2023/03/04 06:36:36;;;;;;;7.53;1.40;;;6.00;99.90;;;;;;5034687;28;20480;-73
2023/03/04 06:39:04;;;;;;;5.10;1.77;;;6.00;99.90;;;;;;5050811;28;20114;-72
2023/03/04 06:41:30;;;;;;;1.52;1.15;;;6.00;99.90;;;;;;5070541;28;20113;-74
2023/03/04 06:43:56;;;;;;;2.85;0.90;;;5.90;99.90;;;;;;5063480;28;20702;-72
2023/03/04 06:46:22;;;;;;;2.67;0.90;;;5.90;99.90;;;;;;5056694;28;20115;-72
2023/03/04 06:48:48;;;;;;;4.57;1.23;;;5.90;99.90;;;;;;5057064;28;20044;-72
2023/03/04 06:51:14;;;;;;;2.17;1.00;;;5.90;99.90;;;;;;5068308;28;20503;-73
2023/03/04 06:53:40;;;;;;;5.30;1.38;;;5.90;99.90;;;;;;5050467;28;20665;-72
2023/03/04 06:56:07;;;;;;;3.70;2.00;;;5.90;99.90;;;;;;5065584;28;20047;-73
2023/03/04 06:58:33;;;;;;;5.72;1.88;;;5.90;99.90;;;;;;5086822;28;20036;-73
2023/03/04 07:01:12;;;;;;;7.65;1.42;;;5.90;99.90;;;;;;5051663;28;20552;-73
2023/03/04 07:03:38;;;;;;;3.78;1.20;;;6.00;99.90;;;;;;5069880;28;20044;-72
2023/03/04 07:06:03;;;;;;;8.65;2.72;;;6.00;99.90;;;;;;5079532;28;20551;-73
2023/03/04 07:08:29;;;;;;;5.05;1.60;;;6.00;99.90;;;;;;5050584;28;20127;-71
2023/03/04 07:10:55;;;;;;;8.38;1.85;;;6.00;99.90;;;;;;5069998;28;20071;-73
2023/03/04 07:13:20;;;;;;;10.63;2.22;;;6.00;99.90;;;;;;5070735;28;20611;-73
2023/03/04 07:15:46;;;;;;;8.25;1.85;;;6.00;99.90;;;;;;5079194;28;20056;-72
2023/03/04 07:18:11;;;;;;;4.10;2.25;;;6.00;99.90;;;;;;5069087;28;20047;-72
2023/03/04 07:20:37;;;;;;;3.83;1.95;;;6.10;99.90;;;;;;5070393;28;20392;-74
2023/03/04 07:23:02;;;;;;;3.75;1.58;;;6.10;99.90;;;;;;5058951;28;20059;-73
2023/03/04 07:25:28;;;;;;;3.08;1.58;;;6.10;99.90;;;;;;5064534;28;20079;-72
2023/03/04 07:27:54;;;;;;;2.60;0.77;;;6.10;99.90;;;;;;5052955;28;20075;-73
2023/03/04 07:30:19;;;;;;;2.15;0.95;;;6.10;99.90;;;;;;5068783;28;20067;-73
2023/03/04 07:32:45;;;;;;;7.25;1.67;;;6.10;99.90;;;;;;5071882;28;20036;-73
2023/03/04 07:35:11;;;;;;;1.73;0.80;;;6.10;99.90;;;;;;5067773;28;20477;-75
2023/03/04 07:37:36;;;;;;;2.25;1.73;;;6.10;99.90;;;;;;5079054;28;20087;-73
2023/03/04 07:40:02;;;;;;;4.18;1.42;;;6.10;99.90;;;;;;5076914;28;20070;-72
2023/03/04 07:42:28;;;;;;;4.82;2.25;;;6.10;99.90;;;;;;5076708;28;20119;-74
2023/03/04 07:44:54;;;;;;;3.00;0.90;;;6.20;99.90;;;;;;5069215;28;20166;-75
2023/03/04 07:47:20;;;;;;;2.83;1.55;;;6.10;99.90;;;;;;5073992;28;20044;-74
2023/03/04 07:49:45;;;;;;;7.35;1.92;;;6.10;99.90;;;;;;5051210;28;20048;-75
2023/03/04 07:52:13;;;;;;;5.82;1.95;;;6.10;99.90;;;;;;5054082;28;20041;-75
2023/03/04 07:54:39;;;;;;;4.22;1.05;;;6.10;99.90;;;;;;5061895;28;20047;-74
2023/03/04 07:57:04;;;;;;;5.82;1.88;;;6.10;99.90;;;;;;5058677;28;20264;-76
2023/03/04 07:59:30;;;;;;;4.82;2.17;;;6.10;99.90;;;;;;5059477;28;20044;-76
2023/03/04 08:01:56;;;;;;;6.38;2.65;;;6.10;99.90;;;;;;5075197;28;20044;-78
2023/03/04 08:04:22;;;;;;;3.72;1.60;;;6.10;99.90;;;;;;5083610;28;20040;-75
2023/03/04 08:06:47;;;;;;;4.13;2.20;;;6.20;99.90;;;;;;5047981;28;20628;-74
2023/03/04 08:09:13;;;;;;;4.03;1.60;;;6.20;99.90;;;;;;5047812;28;20047;-75
2023/03/04 08:11:39;;;;;;;4.10;0.82;;;6.20;99.90;;;;;;5085502;28;20131;-75
2023/03/04 08:14:06;;;;;;;7.72;2.38;;;6.30;99.90;;;;;;5073570;28;20050;-75
2023/03/04 08:16:32;;;;;;;1.95;1.38;;;6.30;99.90;;;;;;5056703;28;20043;-75
2023/03/04 08:19:00;;;;;;;8.80;1.42;;;6.30;99.90;;;;;;5072846;28;20492;-75
2023/03/04 08:21:26;;;;;;;1.73;0.98;;;6.30;99.90;;;;;;5059768;28;20044;-74
2023/03/04 08:23:53;;;;;;;1.45;1.23;;;6.40;99.90;;;;;;5060312;28;20054;-74
2023/03/04 08:26:26;;;;;;;4.53;1.45;;;6.40;99.90;;;;;;5073749;28;20040;-75
2023/03/04 08:28:53;;;;;;;2.78;1.58;;;6.40;99.90;;;;;;5068007;28;20036;-74
2023/03/04 08:31:19;;;;;;;6.25;1.33;;;6.40;99.90;;;;;;5073158;28;20110;-74
2023/03/04 08:33:45;;;;;;;2.30;1.58;;;6.50;99.90;;;;;;5042664;28;20036;-75
2023/03/04 08:36:12;;;;;;;5.60;3.60;;;6.50;99.90;;;;;;5064349;28;20059;-75
2023/03/04 08:38:38;;;;;;;12.00;3.92;;;6.40;99.90;;;;;;5077795;28;20040;-74
2023/03/04 08:41:04;;;;;;;12.90;2.42;;;6.40;99.90;;;;;;5065962;28;20043;-74
2023/03/04 08:43:30;;;;;;;12.75;3.00;;;6.40;99.90;;;;;;5071110;28;20123;-75
2023/03/04 08:45:56;;;;;;;8.02;3.08;;;6.40;99.90;;;;;;5067481;28;20036;-75
2023/03/04 08:48:22;;;;;;;6.15;2.03;;;6.50;99.90;;;;;;5086619;28;20040;-75
2023/03/04 08:50:48;;;;;;;7.55;3.65;;;6.40;99.90;;;;;;5051726;28;20051;-75
2023/03/04 08:53:16;;;;;;;11.07;3.08;;;6.50;99.90;;;;;;5068785;28;20044;-74
2023/03/04 08:55:43;;;;;;;11.63;2.55;;;6.50;99.90;;;;;;5043485;28;20094;-72
2023/03/04 08:58:10;;;;;;;37.00;3.92;;;6.50;99.90;;;;;;5060359;28;20157;-73
2023/03/04 09:00:38;;;;;;;8.23;3.40;;;6.50;99.90;;;;;;5065173;28;20040;-74
2023/03/04 09:03:04;;;;;;;8.98;3.47;;;6.50;99.90;;;;;;5048277;28;20127;-75
2023/03/04 09:05:31;;;;;;;10.07;2.72;;;6.50;99.90;;;;;;5047637;28;20128;-75
2023/03/04 09:07:57;;;;;;;11.50;3.63;;;6.50;99.90;;;;;;5066957;28;20048;-74
2023/03/04 09:10:23;;;;;;;6.43;2.35;;;6.50;99.90;;;;;;5043793;28;20040;-75
2023/03/04 09:12:48;;;;;;;8.10;2.97;;;6.50;99.90;;;;;;5066179;28;20466;-74
2023/03/04 09:15:14;;;;;;;5.53;2.78;;;6.60;99.90;;;;;;5047154;28;20566;-73
2023/03/04 09:17:40;;;;;;;5.78;2.33;;;6.60;99.90;;;;;;5048804;28;20080;-74
2023/03/04 09:20:09;;;;;;;10.43;3.65;;;6.60;99.90;;;;;;5048915;28;20048;-74
2023/03/04 09:22:39;;;;;;;10.60;2.90;;;6.60;99.90;;;;;;5037899;28;20643;-74
2023/03/04 09:25:06;;;;;;;6.60;2.80;;;6.70;99.90;;;;;;5086198;28;20072;-74
2023/03/04 09:27:31;;;;;;;13.95;4.05;;;6.70;99.90;;;;;;5062196;28;20045;-74
2023/03/04 09:29:57;;;;;;;12.15;3.65;;;6.70;99.90;;;;;;5074465;28;20051;-74
2023/03/04 09:32:22;;;;;;;5.93;2.40;;;6.70;99.90;;;;;;5063091;28;20105;-74
2023/03/04 09:34:48;;;;;;;4.22;1.92;;;6.70;99.90;;;;;;5048608;28;20058;-74
2023/03/04 09:37:14;;;;;;;10.68;2.65;;;6.70;99.90;;;;;;5047619;28;20037;-74
2023/03/04 09:39:39;;;;;;;8.07;3.05;;;6.70;99.90;;;;;;5066366;28;20037;-74
2023/03/04 09:42:09;;;;;;;15.10;2.47;;;6.70;99.90;;;;;;5063269;28;20047;-75
2023/03/04 09:44:39;;;;;;;13.90;2.70;;;6.80;99.90;;;;;;5047258;28;20583;-74
2023/03/04 09:47:14;;;;;;;5.18;3.08;;;6.80;99.90;;;;;;5055824;28;20051;-74
2023/03/04 09:49:43;;;;;;;3.88;2.70;;;6.80;99.90;;;;;;5061499;28;20446;-77
2023/03/04 09:52:27;;;;;;;4.97;2.85;;;6.80;99.90;;;;;;5068492;28;20119;-75
2023/03/04 09:55:11;;;;;;;8.38;3.00;;;6.80;99.90;;;;;;5065764;28;20044;-74
2023/03/04 09:57:43;;;;;;;10.85;1.88;;;6.80;99.90;;;;;;5063458;28;20052;-74
2023/03/04 10:00:22;;;;;;;11.93;2.25;;;6.80;99.90;;;;;;5063149;28;20052;-75
2023/03/04 10:03:09;;;;;;;9.45;1.98;;;6.80;99.90;;;;;;5067352;28;20040;-75
2023/03/04 10:05:55;;;;;;;7.25;3.55;;;6.90;99.90;;;;;;5051970;28;20045;-75
2023/03/04 10:08:51;;;;;;;10.82;3.78;;;6.90;99.90;;;;;;5068054;28;20043;-75
2023/03/04 10:11:34;;;;;;;7.03;2.25;;;6.90;99.90;;;;;;5051327;28;20052;-75
2023/03/04 10:14:22;;;;;;;4.32;2.42;;;6.90;99.90;;;;;;5050947;28;20044;-75
2023/03/04 10:16:52;;;;;;;3.78;1.63;;;6.80;99.90;;;;;;5069756;28;20032;-75
2023/03/04 10:19:30;;;;;;;4.32;2.13;;;6.80;99.90;;;;;;5072526;28;20040;-75
2023/03/04 10:21:56;;;;;;;1.52;1.05;;;6.80;99.90;;;;;;5062574;28;20594;-76
2023/03/04 10:24:27;;;;;;;5.88;0.88;;;6.80;99.90;;;;;;5068305;28;20491;-76
2023/03/04 10:27:00;;;;;;;4.85;1.63;;;6.80;99.90;;;;;;5033509;28;20639;-77
2023/03/04 10:29:29;;;;;;;3.42;1.23;;;6.90;99.90;;;;;;5031462;28;21706;-74
2023/03/04 10:31:55;;;;;;;2.70;0.93;;;6.90;99.90;;;;;;5058250;28;20193;-76
2023/03/04 10:34:21;;;;;;;1.02;0.70;;;6.90;99.90;;;;;;5082825;28;20128;-74
2023/03/04 10:36:58;;;;;;;2.25;0.85;;;7.00;99.90;;;;;;5063453;28;20075;-76
2023/03/04 10:39:30;;;;;;;1.42;0.93;;;7.10;99.90;;;;;;5070397;28;20035;-77
2023/03/04 10:41:59;;;;;;;;;;;7.00;99.90;;;;;;5077146;28;20051;-78
2023/03/04 10:44:25;;;;;;;5.22;2.33;;;7.20;99.90;;;;;;5062776;28;19924;-75
2023/03/04 10:46:54;;;;;;;6.13;2.65;;;7.10;99.90;;;;;;5060226;28;20050;-75
2023/03/04 10:49:20;;;;;;;4.68;1.40;;;7.20;99.90;;;;;;5070622;28;20040;-75
2023/03/04 10:51:52;;;;;;;3.50;1.75;;;7.20;99.90;;;;;;5049362;28;20049;-74
2023/03/04 10:54:32;;;;;;;5.25;2.38;;;7.20;99.90;;;;;;5057680;28;20039;-75
2023/03/04 10:57:05;;;;;;;5.55;2.35;;;7.20;99.90;;;;;;5059385;28;20043;-75
2023/03/04 10:59:38;;;;;;;7.80;2.35;;;7.20;99.90;;;;;;5073472;28;20036;-76
2023/03/04 11:02:15;;;;;;;2.90;1.50;;;7.30;99.90;;;;;;5086171;28;20051;-75
2023/03/04 11:04:41;;;;;;;1.75;1.13;;;7.30;99.90;;;;;;5078288;28;20052;-76
2023/03/04 11:07:10;;;;;;;11.35;1.85;;;7.30;99.90;;;;;;5085282;28;20051;-76
2023/03/04 11:09:36;;;;;;;2.67;1.40;;;7.30;99.90;;;;;;5069718;28;20484;-77
2023/03/04 11:12:09;;;;;;;1.85;1.67;;;7.30;99.90;;;;;;5078157;28;20078;-76
2023/03/04 11:14:49;;;;;;;7.90;1.77;;;7.30;99.90;;;;;;5063654;28;20055;-75
2023/03/04 11:17:24;;;;;;;7.43;1.55;;;7.30;99.90;;;;;;5056211;28;20066;-75
2023/03/04 11:20:16;;;;;;;2.60;1.73;;;7.30;99.90;;;;;;5068706;28;20549;-76
2023/03/04 11:22:45;;;;;;;4.20;1.92;;;7.40;99.90;;;;;;5046250;28;20080;-76
2023/03/04 11:25:28;;;;;;;6.13;2.53;;;7.30;99.90;;;;;;5078047;28;20044;-76
2023/03/04 11:28:17;;;;;;;4.25;1.40;;;7.30;99.90;;;;;;5061741;28;20125;-76
2023/03/04 11:30:53;;;;;;;7.18;2.97;;;7.40;99.90;;;;;;5057185;28;20140;-79
2023/03/04 11:33:54;;;;;;;5.45;2.15;;;7.40;99.90;;;;;;5058076;28;20291;-76
2023/03/04 11:36:41;;;;;;;5.30;2.35;;;7.50;99.90;;;;;;5059458;28;20443;-75
2023/03/04 11:39:19;;;;;;;5.53;2.05;;;7.50;99.90;;;;;;5056806;28;20044;-80
2023/03/04 11:41:54;;;;;;;10.57;2.25;;;7.50;99.90;;;;;;5058311;28;20032;-75
2023/03/04 11:44:19;;;;;;;6.15;2.03;;;7.50;99.90;;;;;;5045070;28;20574;-75
2023/03/04 11:47:05;;;;;;;7.78;1.98;;;7.50;99.90;;;;;;5078391;28;20033;-74
2023/03/04 11:49:40;;;;;;;9.82;3.15;;;7.50;99.90;;;;;;5062405;28;20086;-75
2023/03/04 11:52:36;;;;;;;17.73;2.30;;;7.50;99.90;;;;;;5038108;28;20101;-75
2023/03/04 11:55:07;;;;;;;5.15;1.92;;;7.50;99.90;;;;;;5051416;28;20050;-75
2023/03/04 11:57:33;;;;;;;5.95;3.70;;;7.40;99.90;;;;;;5069544;28;20033;-75
2023/03/04 12:00:11;;;;;;;5.82;2.65;;;7.50;99.90;;;;;;5067509;28;20052;-75
2023/03/04 12:02:50;;;;;;;6.00;1.85;;;7.50;99.90;;;;;;5067939;28;20049;-75
2023/03/04 12:05:19;;;;;;;6.15;3.08;;;7.60;99.90;;;;;;5067239;28;20063;-74
2023/03/04 12:07:57;;;;;;;6.32;1.83;;;7.50;99.90;;;;;;5049548;28;20044;-75
2023/03/04 12:10:55;;;;;;;2.30;1.50;;;7.60;99.90;;;;;;5063000;28;20046;-74
2023/03/04 12:13:37;;;;;;;6.68;2.53;;;7.60;99.90;;;;;;5038428;28;20049;-75
2023/03/04 12:16:40;;;;;;;3.75;2.28;;;7.60;99.90;;;;;;5068063;28;20060;-75
2023/03/04 12:19:43;;;;;;;5.55;3.30;;;7.60;99.90;;;;;;5053318;28;20044;-77
2023/03/04 12:22:29;;;;;;;7.03;4.18;;;7.60;99.90;;;;;;5048861;28;20132;-76
2023/03/04 12:25:09;;;;;;;11.07;3.40;;;7.50;99.90;;;;;;5061023;28;20039;-77
2023/03/04 12:27:44;;;;;;;10.57;3.42;;;7.50;99.90;;;;;;5061460;28;20040;-77
2023/03/04 12:30:26;;;;;;;5.18;2.33;;;7.50;99.90;;;;;;5055929;28;20070;-82
2023/03/04 12:33:26;;;;;;;8.63;3.47;;;7.50;99.90;;;;;;5051618;28;20055;-75
2023/03/04 12:36:05;;;;;;;9.35;3.00;;;7.50;99.90;;;;;;5057807;28;20067;-78
2023/03/04 12:38:47;;;;;;;8.18;3.33;;;7.50;99.90;;;;;;5044613;28;20051;-76
2023/03/04 12:41:44;;;;;;;4.65;1.65;;;7.50;99.90;;;;;;5057428;28;20044;-76
2023/03/04 12:44:17;;;;;;;7.60;2.17;;;7.50;99.90;;;;;;5069472;28;20531;-78
2023/03/04 12:46:55;;;;;;;14.00;3.53;;;7.50;99.90;;;;;;5036696;28;20044;-77
2023/03/04 12:49:39;;;;;;;6.63;2.80;;;7.50;99.90;;;;;;5054678;28;20044;-76
2023/03/04 12:52:13;;;;;;;2.05;1.52;;;7.50;99.90;;;;;;5060762;28;20413;-77
2023/03/04 12:54:46;;;;;;;6.03;2.33;;;7.60;99.90;;;;;;5076186;28;20498;-77
2023/03/04 12:57:20;;;;;;;4.78;2.38;;;7.60;99.90;;;;;;5052995;28;20123;-76
2023/03/04 12:59:50;;;;;;;;;;;7.60;99.90;;;;;;5060997;28;20167;-76
2023/03/04 13:02:50;;;;;;;15.15;2.38;;;7.50;99.90;;;;;;5073875;28;19924;-77
2023/03/04 13:05:34;;;;;;;14.65;2.70;;;7.50;99.90;;;;;;5069243;28;20052;-77